Terminal Aerodrome Forecast
Issued by NWS

Home | Current Version | Previous Version | Text Only | Print | Product List | Glossary Off
Versions: 1 2 3 4 5 6 7 8 9 10 11 12 13 14 15 16 17 18 19 20 21 22 23 24

000
FTUS43 KLOT 082053 AAA
TAFDPA
TAF AMD
KDPA 082053Z 0821/0918 24013G19KT P6SM FEW070 SCT250
     FM090000 24009KT P6SM SCT040 BKN100
     FM090400 23010KT 6SM -SN OVC060
     FM090600 23008KT 3SM -SN OVC025
      TEMPO 0906/0909 1SM -SN SCT009 OVC015
     FM091000 29010KT 4SM -SHSN OVC025
     FM091200 32015G23KT P6SM -SN BKN035
     FM091500 33017G27KT P6SM BKN040=

USA.gov is the U.S. government's official web portal to all federal, state and local government web resources and services.